Campbell County Airport


Codes: KJAU/
Name: Campbell County Airport
City: Jacksboro
Country: United States
Elevation: 1180 ft.

Photos at Campbell County Airport


   Photos courtesy of SpottingLog. You can add your own sightings and photos by signing up for a free trial today.



No photos found.

Weather at Campbell County Airport


Time (UTC)DescriptionTempratureWindCloud coverageVisibilityPressureHumidity
21-Jun-2024 15:00Scattered Clouds24°C2 mph, SE30%10000m1026hPa81%
21-Jun-2024 18:00Broken Clouds29°C2 mph, E53%10000m1024hPa58%
21-Jun-2024 21:00Scattered Clouds34°C2 mph, E45%10000m1019hPa34%
22-Jun-2024 00:00Broken Clouds27°C2 mph, SW66%10000m1020hPa65%
22-Jun-2024 03:00Scattered Clouds23°C2 mph, NW33%10000m1021hPa75%
22-Jun-2024 06:00Broken Clouds22°C2 mph, NW56%10000m1020hPa79%
22-Jun-2024 09:00Clear Sky21°C0 mph, SW0%10000m1020hPa82%
22-Jun-2024 12:00Clear Sky24°C2 mph, S0%10000m1021hPa76%
22-Jun-2024 15:00Clear Sky31°C2 mph, S0%10000m1019hPa50%
22-Jun-2024 18:00Scattered Clouds30°C2 mph, SW25%10000m1017hPa54%
22-Jun-2024 21:00Overcast Clouds29°C4 mph, NW100%10000m1016hPa64%
23-Jun-2024 00:00Overcast Clouds27°C2 mph, NW94%10000m1015hPa75%
23-Jun-2024 03:00Broken Clouds23°C2 mph, NW70%10000m1016hPa78%
23-Jun-2024 06:00Broken Clouds22°C2 mph, SW53%10000m1015hPa75%
23-Jun-2024 09:00Broken Clouds22°C2 mph, SW84%10000m1015hPa72%
23-Jun-2024 12:00Overcast Clouds24°C2 mph, SW92%10000m1015hPa75%
23-Jun-2024 15:00Overcast Clouds30°C9 mph, SW100%10000m1014hPa47%
23-Jun-2024 18:00Overcast Clouds33°C13 mph, W91%10000m1012hPa37%
23-Jun-2024 21:00Overcast Clouds33°C11 mph, W96%10000m1011hPa42%
24-Jun-2024 00:00Light Rain26°C4 mph, W99%10000m1011hPa69%
24-Jun-2024 03:00Light Rain22°C4 mph, W94%10000m1012hPa94%
24-Jun-2024 06:00Light Rain21°C2 mph, W61%10000m1012hPa97%
24-Jun-2024 09:00Clear Sky21°C2 mph, W9%10000m1012hPa98%
24-Jun-2024 12:00Few Clouds23°C2 mph, W12%10000m1014hPa96%
24-Jun-2024 15:00Scattered Clouds29°C4 mph, NW30%10000m1014hPa56%
24-Jun-2024 18:00Few Clouds33°C4 mph, NW15%10000m1013hPa35%
24-Jun-2024 21:00Clear Sky34°C7 mph, NW0%10000m1011hPa30%
25-Jun-2024 00:00Clear Sky27°C4 mph, NW0%10000m1012hPa65%
25-Jun-2024 03:00Clear Sky23°C4 mph, NW0%10000m1014hPa71%
25-Jun-2024 06:00Light Rain22°C2 mph, SW2%10000m1014hPa81%
25-Jun-2024 09:00Light Rain20°C2 mph, W2%10000m1013hPa92%
25-Jun-2024 12:00Light Rain23°C2 mph, SW8%10000m1014hPa91%
25-Jun-2024 15:00Light Rain32°C4 mph, SW45%10000m1014hPa53%
25-Jun-2024 18:00Scattered Clouds35°C4 mph, SW31%10000m1013hPa38%
25-Jun-2024 21:00Moderate Rain24°C16 mph, S64%10000m1014hPa88%
26-Jun-2024 00:00Light Rain22°C2 mph, NE83%10000m1013hPa96%
26-Jun-2024 03:00Light Rain20°C2 mph, NE41%10000m1013hPa93%
26-Jun-2024 06:00Scattered Clouds19°C2 mph, SW49%10000m1012hPa94%
26-Jun-2024 09:00Light Rain20°C4 mph, S70%10000m1012hPa97%
26-Jun-2024 12:00Light Rain22°C2 mph, S79%10000m1012hPa96%